sensor_id;sensor_type;location;lat;lon;timestamp;temperature;humidity
23122;DHT22;11730;51.248;22.534;2023-03-02T00:04:24;1.00;99.90
23122;DHT22;11730;51.248;22.534;2023-03-02T00:06:59;0.30;99.90
23122;DHT22;11730;51.248;22.534;2023-03-02T00:09:28;0.20;99.90
23122;DHT22;11730;51.248;22.534;2023-03-02T00:11:56;0.50;99.90
23122;DHT22;11730;51.248;22.534;2023-03-02T00:14:23;0.70;99.90
23122;DHT22;11730;51.248;22.534;2023-03-02T00:24:12;0.40;99.90
23122;DHT22;11730;51.248;22.534;2023-03-02T00:29:08;1.00;99.90
23122;DHT22;11730;51.248;22.534;2023-03-02T00:31:36;1.10;99.90
23122;DHT22;11730;51.248;22.534;2023-03-02T00:36:31;0.60;99.90
23122;DHT22;11730;51.248;22.534;2023-03-02T00:43:53;1.60;99.90
23122;DHT22;11730;51.248;22.534;2023-03-02T00:46:21;0.70;99.90
23122;DHT22;11730;51.248;22.534;2023-03-02T00:48:49;0.60;99.90
23122;DHT22;11730;51.248;22.534;2023-03-02T00:51:16;0.80;99.90
23122;DHT22;11730;51.248;22.534;2023-03-02T00:53:44;0.60;99.90
23122;DHT22;11730;51.248;22.534;2023-03-02T00:58:38;0.70;99.90
23122;DHT22;11730;51.248;22.534;2023-03-02T01:01:08;0.80;99.90
23122;DHT22;11730;51.248;22.534;2023-03-02T01:03:36;0.70;99.90
23122;DHT22;11730;51.248;22.534;2023-03-02T01:06:04;0.30;99.90
23122;DHT22;11730;51.248;22.534;2023-03-02T01:16:01;0.50;99.90
23122;DHT22;11730;51.248;22.534;2023-03-02T01:21:04;0.50;99.90
23122;DHT22;11730;51.248;22.534;2023-03-02T01:23:31;0.50;99.90
23122;DHT22;11730;51.248;22.534;2023-03-02T01:25:58;0.40;99.90
23122;DHT22;11730;51.248;22.534;2023-03-02T01:28:25;0.30;99.90
23122;DHT22;11730;51.248;22.534;2023-03-02T01:33:20;0.20;99.90
23122;DHT22;11730;51.248;22.534;2023-03-02T01:38:14;0.50;99.90
23122;DHT22;11730;51.248;22.534;2023-03-02T01:40:41;0.00;99.90
23122;DHT22;11730;51.248;22.534;2023-03-02T01:43:14;0.50;99.90
23122;DHT22;11730;51.248;22.534;2023-03-02T01:48:10;0.30;99.90
23122;DHT22;11730;51.248;22.534;2023-03-02T01:50:38;0.60;99.90
23122;DHT22;11730;51.248;22.534;2023-03-02T01:53:06;0.20;99.90
23122;DHT22;11730;51.248;22.534;2023-03-02T01:55:35;0.00;99.90
23122;DHT22;11730;51.248;22.534;2023-03-02T02:00:37;-0.10;99.90
23122;DHT22;11730;51.248;22.534;2023-03-02T02:03:11;0.30;99.90
23122;DHT22;11730;51.248;22.534;2023-03-02T02:05:42;0.40;99.90
23122;DHT22;11730;51.248;22.534;2023-03-02T02:08:09;0.40;99.90
23122;DHT22;11730;51.248;22.534;2023-03-02T02:10:37;0.60;99.90
23122;DHT22;11730;51.248;22.534;2023-03-02T02:13:08;0.70;99.90
23122;DHT22;11730;51.248;22.534;2023-03-02T02:18:04;0.40;99.90
23122;DHT22;11730;51.248;22.534;2023-03-02T02:31:22;1.20;99.90
23122;DHT22;11730;51.248;22.534;2023-03-02T02:33:58;0.80;99.90
23122;DHT22;11730;51.248;22.534;2023-03-02T02:36:31;0.70;99.90
23122;DHT22;11730;51.248;22.534;2023-03-02T02:39:01;0.80;99.90
23122;DHT22;11730;51.248;22.534;2023-03-02T02:41:34;0.90;99.90
23122;DHT22;11730;51.248;22.534;2023-03-02T02:46:30;0.90;99.90
23122;DHT22;11730;51.248;22.534;2023-03-02T02:48:59;0.90;99.90
23122;DHT22;11730;51.248;22.534;2023-03-02T02:51:28;0.80;99.90
23122;DHT22;11730;51.248;22.534;2023-03-02T02:53:58;0.90;99.90
23122;DHT22;11730;51.248;22.534;2023-03-02T02:56:28;4.00;99.90
23122;DHT22;11730;51.248;22.534;2023-03-02T02:59:19;0.90;99.90
23122;DHT22;11730;51.248;22.534;2023-03-02T03:01:47;1.00;99.90
23122;DHT22;11730;51.248;22.534;2023-03-02T03:04:20;0.80;99.90
23122;DHT22;11730;51.248;22.534;2023-03-02T03:07:00;0.80;99.90
23122;DHT22;11730;51.248;22.534;2023-03-02T03:09:29;0.80;99.90
23122;DHT22;11730;51.248;22.534;2023-03-02T03:12:23;1.10;99.90
23122;DHT22;11730;51.248;22.534;2023-03-02T03:14:52;1.00;99.90
23122;DHT22;11730;51.248;22.534;2023-03-02T03:17:19;0.50;99.90
23122;DHT22;11730;51.248;22.534;2023-03-02T03:22:15;1.00;99.90
23122;DHT22;11730;51.248;22.534;2023-03-02T03:24:43;1.30;99.90
23122;DHT22;11730;51.248;22.534;2023-03-02T03:27:13;1.00;99.90
23122;DHT22;11730;51.248;22.534;2023-03-02T03:29:43;1.00;99.90
23122;DHT22;11730;51.248;22.534;2023-03-02T03:34:38;1.40;99.90
23122;DHT22;11730;51.248;22.534;2023-03-02T03:37:09;1.20;99.90
23122;DHT22;11730;51.248;22.534;2023-03-02T03:42:04;0.80;99.90
23122;DHT22;11730;51.248;22.534;2023-03-02T03:51:54;1.10;99.90
23122;DHT22;11730;51.248;22.534;2023-03-02T03:54:20;1.00;99.90
23122;DHT22;11730;51.248;22.534;2023-03-02T03:56:48;1.30;99.90
23122;DHT22;11730;51.248;22.534;2023-03-02T03:59:19;1.40;99.90
23122;DHT22;11730;51.248;22.534;2023-03-02T04:01:51;1.30;99.90
23122;DHT22;11730;51.248;22.534;2023-03-02T04:04:23;1.50;99.90
23122;DHT22;11730;51.248;22.534;2023-03-02T04:06:50;1.30;99.90
23122;DHT22;11730;51.248;22.534;2023-03-02T04:11:47;1.40;99.90
23122;DHT22;11730;51.248;22.534;2023-03-02T04:16:42;1.80;99.90
23122;DHT22;11730;51.248;22.534;2023-03-02T04:19:10;1.70;99.90
23122;DHT22;11730;51.248;22.534;2023-03-02T04:21:39;1.50;99.90
23122;DHT22;11730;51.248;22.534;2023-03-02T04:24:07;1.40;99.90
23122;DHT22;11730;51.248;22.534;2023-03-02T04:26:36;1.50;99.90
23122;DHT22;11730;51.248;22.534;2023-03-02T04:31:30;1.80;99.90
23122;DHT22;11730;51.248;22.534;2023-03-02T04:36:25;1.70;99.90
23122;DHT22;11730;51.248;22.534;2023-03-02T04:41:20;1.80;99.90
23122;DHT22;11730;51.248;22.534;2023-03-02T04:43:47;2.10;99.90
23122;DHT22;11730;51.248;22.534;2023-03-02T04:46:23;2.00;99.90
23122;DHT22;11730;51.248;22.534;2023-03-02T04:48:51;2.10;99.90
23122;DHT22;11730;51.248;22.534;2023-03-02T04:51:24;1.70;99.90
23122;DHT22;11730;51.248;22.534;2023-03-02T04:53:53;1.70;99.90
23122;DHT22;11730;51.248;22.534;2023-03-02T04:56:21;1.60;99.90
23122;DHT22;11730;51.248;22.534;2023-03-02T04:58:48;1.50;99.90
23122;DHT22;11730;51.248;22.534;2023-03-02T05:01:15;1.70;99.90
23122;DHT22;11730;51.248;22.534;2023-03-02T05:13:34;1.10;99.90
23122;DHT22;11730;51.248;22.534;2023-03-02T05:20:55;0.80;99.90
23122;DHT22;11730;51.248;22.534;2023-03-02T05:23:23;1.30;99.90
23122;DHT22;11730;51.248;22.534;2023-03-02T05:25:54;1.20;99.90
23122;DHT22;11730;51.248;22.534;2023-03-02T05:28:23;1.20;99.90
23122;DHT22;11730;51.248;22.534;2023-03-02T05:30:51;1.40;99.90
23122;DHT22;11730;51.248;22.534;2023-03-02T05:33:19;1.20;99.90
23122;DHT22;11730;51.248;22.534;2023-03-02T05:35:46;1.10;99.90
23122;DHT22;11730;51.248;22.534;2023-03-02T05:40:41;0.90;99.90
23122;DHT22;11730;51.248;22.534;2023-03-02T05:43:10;1.10;99.90
23122;DHT22;11730;51.248;22.534;2023-03-02T05:55:29;1.00;99.90
23122;DHT22;11730;51.248;22.534;2023-03-02T06:00:23;1.10;99.90
23122;DHT22;11730;51.248;22.534;2023-03-02T06:05:18;1.00;99.90
23122;DHT22;11730;51.248;22.534;2023-03-02T06:10:13;0.90;99.90
23122;DHT22;11730;51.248;22.534;2023-03-02T06:12:40;1.10;99.90
23122;DHT22;11730;51.248;22.534;2023-03-02T06:15:08;1.20;99.90
23122;DHT22;11730;51.248;22.534;2023-03-02T06:17:35;1.20;99.90
23122;DHT22;11730;51.248;22.534;2023-03-02T06:20:02;1.10;99.90
23122;DHT22;11730;51.248;22.534;2023-03-02T06:25:00;0.90;99.90
23122;DHT22;11730;51.248;22.534;2023-03-02T06:29:54;1.20;99.90
23122;DHT22;11730;51.248;22.534;2023-03-02T06:37:16;1.00;99.90
23122;DHT22;11730;51.248;22.534;2023-03-02T06:42:10;1.50;99.90
23122;DHT22;11730;51.248;22.534;2023-03-02T06:47:04;1.90;99.90
23122;DHT22;11730;51.248;22.534;2023-03-02T06:49:31;1.60;99.90
23122;DHT22;11730;51.248;22.534;2023-03-02T06:59:21;1.60;99.90
23122;DHT22;11730;51.248;22.534;2023-03-02T07:01:48;1.60;99.90
23122;DHT22;11730;51.248;22.534;2023-03-02T07:16:33;1.40;99.90
23122;DHT22;11730;51.248;22.534;2023-03-02T07:31:16;2.20;99.90
23122;DHT22;11730;51.248;22.534;2023-03-02T07:36:11;1.90;99.90
23122;DHT22;11730;51.248;22.534;2023-03-02T07:38:38;2.40;99.90
23122;DHT22;11730;51.248;22.534;2023-03-02T07:41:06;2.00;99.90
23122;DHT22;11730;51.248;22.534;2023-03-02T07:46:03;2.20;99.90
23122;DHT22;11730;51.248;22.534;2023-03-02T07:51:02;1.90;99.90
23122;DHT22;11730;51.248;22.534;2023-03-02T07:53:30;2.40;99.90
23122;DHT22;11730;51.248;22.534;2023-03-02T07:58:24;2.00;99.90
23122;DHT22;11730;51.248;22.534;2023-03-02T08:05:46;3.00;99.90
23122;DHT22;11730;51.248;22.534;2023-03-02T08:10:40;2.30;99.90
23122;DHT22;11730;51.248;22.534;2023-03-02T08:20:29;2.90;99.90
23122;DHT22;11730;51.248;22.534;2023-03-02T08:22:56;2.90;99.90
23122;DHT22;11730;51.248;22.534;2023-03-02T08:27:50;2.80;99.90
23122;DHT22;11730;51.248;22.534;2023-03-02T08:30:17;2.50;99.90
23122;DHT22;11730;51.248;22.534;2023-03-02T08:35:11;2.80;99.90
23122;DHT22;11730;51.248;22.534;2023-03-02T08:40:06;3.30;99.90
23122;DHT22;11730;51.248;22.534;2023-03-02T08:52:22;2.90;99.90
23122;DHT22;11730;51.248;22.534;2023-03-02T08:57:16;3.60;99.90
23122;DHT22;11730;51.248;22.534;2023-03-02T08:59:49;3.70;99.90
23122;DHT22;11730;51.248;22.534;2023-03-02T09:12:10;3.10;99.90
23122;DHT22;11730;51.248;22.534;2023-03-02T09:14:37;3.40;99.90
23122;DHT22;11730;51.248;22.534;2023-03-02T09:31:58;3.30;99.90
23122;DHT22;11730;51.248;22.534;2023-03-02T09:36:53;3.50;99.90
23122;DHT22;11730;51.248;22.534;2023-03-02T09:39:20;3.70;99.90
23122;DHT22;11730;51.248;22.534;2023-03-02T09:44:43;3.60;99.90
23122;DHT22;11730;51.248;22.534;2023-03-02T09:50:35;3.50;99.90
23122;DHT22;11730;51.248;22.534;2023-03-02T09:56:20;3.40;99.90
23122;DHT22;11730;51.248;22.534;2023-03-02T09:59:04;3.40;99.90
23122;DHT22;11730;51.248;22.534;2023-03-02T10:01:42;3.60;99.90
23122;DHT22;11730;51.248;22.534;2023-03-02T10:04:19;3.40;99.90
23122;DHT22;11730;51.248;22.534;2023-03-02T10:06:55;3.20;99.90
23122;DHT22;11730;51.248;22.534;2023-03-02T10:09:23;3.00;99.90
23122;DHT22;11730;51.248;22.534;2023-03-02T10:14:41;3.20;99.90
23122;DHT22;11730;51.248;22.534;2023-03-02T10:19:54;3.10;99.90
23122;DHT22;11730;51.248;22.534;2023-03-02T10:22:38;3.80;99.90
23122;DHT22;11730;51.248;22.534;2023-03-02T10:30:47;3.80;99.90
23122;DHT22;11730;51.248;22.534;2023-03-02T10:33:18;3.40;99.90
23122;DHT22;11730;51.248;22.534;2023-03-02T10:35:49;3.30;99.90
23122;DHT22;11730;51.248;22.534;2023-03-02T10:38:24;3.30;99.90
23122;DHT22;11730;51.248;22.534;2023-03-02T10:40:57;3.50;99.90
23122;DHT22;11730;51.248;22.534;2023-03-02T10:46:05;3.50;99.90
23122;DHT22;11730;51.248;22.534;2023-03-02T10:51:29;3.50;99.90
23122;DHT22;11730;51.248;22.534;2023-03-02T10:56:33;3.30;99.90
23122;DHT22;11730;51.248;22.534;2023-03-02T10:59:11;3.30;99.90
23122;DHT22;11730;51.248;22.534;2023-03-02T11:01:37;3.30;99.90
23122;DHT22;11730;51.248;22.534;2023-03-02T11:04:13;3.30;99.90
23122;DHT22;11730;51.248;22.534;2023-03-02T11:09:11;3.10;99.90
23122;DHT22;11730;51.248;22.534;2023-03-02T11:11:54;3.20;99.90
23122;DHT22;11730;51.248;22.534;2023-03-02T11:16:52;3.30;99.90
23122;DHT22;11730;51.248;22.534;2023-03-02T11:19:35;3.10;99.90
23122;DHT22;11730;51.248;22.534;2023-03-02T11:24:39;3.40;99.90
23122;DHT22;11730;51.248;22.534;2023-03-02T11:27:13;3.30;99.90
23122;DHT22;11730;51.248;22.534;2023-03-02T11:32:36;3.30;99.90
23122;DHT22;11730;51.248;22.534;2023-03-02T11:35:13;3.30;99.90
23122;DHT22;11730;51.248;22.534;2023-03-02T11:37:50;2.90;99.90
23122;DHT22;11730;51.248;22.534;2023-03-02T11:42:45;3.00;99.90
23122;DHT22;11730;51.248;22.534;2023-03-02T11:48:02;3.00;99.90
23122;DHT22;11730;51.248;22.534;2023-03-02T11:50:38;2.90;99.90
23122;DHT22;11730;51.248;22.534;2023-03-02T11:53:12;3.00;99.90
23122;DHT22;11730;51.248;22.534;2023-03-02T11:55:46;3.00;99.90
23122;DHT22;11730;51.248;22.534;2023-03-02T11:58:21;3.20;99.90
23122;DHT22;11730;51.248;22.534;2023-03-02T12:00:50;3.30;99.90
23122;DHT22;11730;51.248;22.534;2023-03-02T12:03:42;3.40;99.90
23122;DHT22;11730;51.248;22.534;2023-03-02T12:08:42;3.40;99.90
23122;DHT22;11730;51.248;22.534;2023-03-02T12:13:44;3.30;99.90
23122;DHT22;11730;51.248;22.534;2023-03-02T12:16:38;3.20;99.90
23122;DHT22;11730;51.248;22.534;2023-03-02T12:22:04;3.00;99.90
23122;DHT22;11730;51.248;22.534;2023-03-02T12:24:34;2.90;99.90
23122;DHT22;11730;51.248;22.534;2023-03-02T12:27:06;3.20;99.90
23122;DHT22;11730;51.248;22.534;2023-03-02T12:29:39;3.10;99.90
23122;DHT22;11730;51.248;22.534;2023-03-02T12:32:26;3.10;99.90
23122;DHT22;11730;51.248;22.534;2023-03-02T12:37:30;3.40;99.90
23122;DHT22;11730;51.248;22.534;2023-03-02T12:46:18;3.30;99.90
23122;DHT22;11730;51.248;22.534;2023-03-02T12:51:57;3.10;99.90
23122;DHT22;11730;51.248;22.534;2023-03-02T12:54:31;3.10;99.90
23122;DHT22;11730;51.248;22.534;2023-03-02T12:57:12;3.00;99.90
23122;DHT22;11730;51.248;22.534;2023-03-02T12:59:39;3.10;99.90
23122;DHT22;11730;51.248;22.534;2023-03-02T13:02:22;3.10;99.90
23122;DHT22;11730;51.248;22.534;2023-03-02T13:04:56;3.00;99.90
23122;DHT22;11730;51.248;22.534;2023-03-02T13:07:33;3.00;99.90
23122;DHT22;11730;51.248;22.534;2023-03-02T13:10:49;3.00;99.90
23122;DHT22;11730;51.248;22.534;2023-03-02T13:12:51;2.90;99.90
23122;DHT22;11730;51.248;22.534;2023-03-02T13:15:17;3.00;99.90
23122;DHT22;11730;51.248;22.534;2023-03-02T13:17:52;3.00;99.90
23122;DHT22;11730;51.248;22.534;2023-03-02T13:20:21;4.10;99.90
23122;DHT22;11730;51.248;22.534;2023-03-02T13:22:50;3.10;99.90
23122;DHT22;11730;51.248;22.534;2023-03-02T13:25:28;3.10;99.90
23122;DHT22;11730;51.248;22.534;2023-03-02T13:28:01;3.20;99.90
23122;DHT22;11730;51.248;22.534;2023-03-02T13:30:35;3.20;99.90
23122;DHT22;11730;51.248;22.534;2023-03-02T13:33:19;3.20;99.90
23122;DHT22;11730;51.248;22.534;2023-03-02T13:35:47;3.10;99.90
23122;DHT22;11730;51.248;22.534;2023-03-02T13:38:22;3.40;99.90
23122;DHT22;11730;51.248;22.534;2023-03-02T13:40:53;3.30;99.90
23122;DHT22;11730;51.248;22.534;2023-03-02T13:43:35;3.20;99.90
23122;DHT22;11730;51.248;22.534;2023-03-02T13:46:06;3.30;99.90
23122;DHT22;11730;51.248;22.534;2023-03-02T13:49:07;3.20;99.90
23122;DHT22;11730;51.248;22.534;2023-03-02T13:51:45;3.10;99.90
23122;DHT22;11730;51.248;22.534;2023-03-02T13:54:20;3.20;99.90
23122;DHT22;11730;51.248;22.534;2023-03-02T13:56:48;3.20;99.90
23122;DHT22;11730;51.248;22.534;2023-03-02T13:59:18;3.30;99.90
23122;DHT22;11730;51.248;22.534;2023-03-02T14:01:45;3.30;99.90
23122;DHT22;11730;51.248;22.534;2023-03-02T14:04:17;3.30;99.90
23122;DHT22;11730;51.248;22.534;2023-03-02T14:06:47;3.40;99.90
23122;DHT22;11730;51.248;22.534;2023-03-02T14:09:15;3.50;99.90
23122;DHT22;11730;51.248;22.534;2023-03-02T14:11:48;3.60;99.90
23122;DHT22;11730;51.248;22.534;2023-03-02T14:14:22;3.60;99.90
23122;DHT22;11730;51.248;22.534;2023-03-02T14:16:49;3.60;99.90
23122;DHT22;11730;51.248;22.534;2023-03-02T14:19:17;3.70;99.90
23122;DHT22;11730;51.248;22.534;2023-03-02T14:21:45;3.80;99.90
23122;DHT22;11730;51.248;22.534;2023-03-02T14:24:12;3.70;99.90
23122;DHT22;11730;51.248;22.534;2023-03-02T14:29:27;3.60;99.90
23122;DHT22;11730;51.248;22.534;2023-03-02T14:31:56;3.50;99.90
23122;DHT22;11730;51.248;22.534;2023-03-02T14:34:26;3.30;99.90
23122;DHT22;11730;51.248;22.534;2023-03-02T14:36:55;3.40;99.90
23122;DHT22;11730;51.248;22.534;2023-03-02T14:39:38;3.50;99.90
23122;DHT22;11730;51.248;22.534;2023-03-02T14:42:15;3.50;99.90
23122;DHT22;11730;51.248;22.534;2023-03-02T14:44:44;3.60;99.90
23122;DHT22;11730;51.248;22.534;2023-03-02T14:47:11;3.60;99.90
23122;DHT22;11730;51.248;22.534;2023-03-02T14:49:39;3.60;99.90
23122;DHT22;11730;51.248;22.534;2023-03-02T14:52:19;3.40;99.90
23122;DHT22;11730;51.248;22.534;2023-03-02T14:54:55;3.30;99.90
23122;DHT22;11730;51.248;22.534;2023-03-02T14:57:25;3.40;99.90
23122;DHT22;11730;51.248;22.534;2023-03-02T14:59:53;3.30;99.90
23122;DHT22;11730;51.248;22.534;2023-03-02T15:02:22;3.20;99.90
23122;DHT22;11730;51.248;22.534;2023-03-02T15:04:52;3.30;99.90
23122;DHT22;11730;51.248;22.534;2023-03-02T15:07:23;3.40;99.90
23122;DHT22;11730;51.248;22.534;2023-03-02T15:09:50;3.30;99.90
23122;DHT22;11730;51.248;22.534;2023-03-02T15:12:17;3.40;99.90
23122;DHT22;11730;51.248;22.534;2023-03-02T15:14:44;3.60;99.90
23122;DHT22;11730;51.248;22.534;2023-03-02T15:17:11;3.60;99.90
23122;DHT22;11730;51.248;22.534;2023-03-02T15:19:38;3.60;99.90
23122;DHT22;11730;51.248;22.534;2023-03-02T15:22:04;3.40;99.90
23122;DHT22;11730;51.248;22.534;2023-03-02T15:24:31;3.20;99.90
23122;DHT22;11730;51.248;22.534;2023-03-02T15:26:59;3.20;99.90
23122;DHT22;11730;51.248;22.534;2023-03-02T15:29:26;3.10;99.90
23122;DHT22;11730;51.248;22.534;2023-03-02T15:31:53;3.10;99.90
23122;DHT22;11730;51.248;22.534;2023-03-02T15:34:20;3.20;99.90
23122;DHT22;11730;51.248;22.534;2023-03-02T15:36:47;3.10;99.90
23122;DHT22;11730;51.248;22.534;2023-03-02T15:39:14;3.00;99.90
23122;DHT22;11730;51.248;22.534;2023-03-02T15:41:42;2.90;99.90
23122;DHT22;11730;51.248;22.534;2023-03-02T15:44:17;2.80;99.90
23122;DHT22;11730;51.248;22.534;2023-03-02T15:46:49;2.90;99.90
23122;DHT22;11730;51.248;22.534;2023-03-02T15:49:17;2.90;99.90
23122;DHT22;11730;51.248;22.534;2023-03-02T15:51:52;3.00;99.90
23122;DHT22;11730;51.248;22.534;2023-03-02T15:54:20;3.00;99.90
23122;DHT22;11730;51.248;22.534;2023-03-02T15:56:47;2.80;99.90
23122;DHT22;11730;51.248;22.534;2023-03-02T15:59:19;2.70;99.90
23122;DHT22;11730;51.248;22.534;2023-03-02T16:01:46;2.70;99.90
23122;DHT22;11730;51.248;22.534;2023-03-02T16:04:13;2.60;99.90
23122;DHT22;11730;51.248;22.534;2023-03-02T16:06:41;2.60;99.90
23122;DHT22;11730;51.248;22.534;2023-03-02T16:09:08;2.60;99.90
23122;DHT22;11730;51.248;22.534;2023-03-02T16:11:35;2.70;99.90
23122;DHT22;11730;51.248;22.534;2023-03-02T16:14:03;2.70;99.90
23122;DHT22;11730;51.248;22.534;2023-03-02T16:16:29;2.50;99.90
23122;DHT22;11730;51.248;22.534;2023-03-02T16:18:57;2.50;99.90
23122;DHT22;11730;51.248;22.534;2023-03-02T16:21:26;2.60;99.90
23122;DHT22;11730;51.248;22.534;2023-03-02T16:23:54;2.50;99.90
23122;DHT22;11730;51.248;22.534;2023-03-02T16:26:29;2.60;99.90
23122;DHT22;11730;51.248;22.534;2023-03-02T16:28:58;2.50;99.90
23122;DHT22;11730;51.248;22.534;2023-03-02T16:31:25;2.60;99.90
23122;DHT22;11730;51.248;22.534;2023-03-02T16:33:55;2.60;99.90
23122;DHT22;11730;51.248;22.534;2023-03-02T16:36:23;2.50;99.90
23122;DHT22;11730;51.248;22.534;2023-03-02T16:38:51;2.50;99.90
23122;DHT22;11730;51.248;22.534;2023-03-02T16:41:20;2.40;99.90
23122;DHT22;11730;51.248;22.534;2023-03-02T16:43:50;2.40;99.90
23122;DHT22;11730;51.248;22.534;2023-03-02T16:46:18;2.40;99.90
23122;DHT22;11730;51.248;22.534;2023-03-02T16:48:46;2.30;99.90
23122;DHT22;11730;51.248;22.534;2023-03-02T16:51:14;2.30;99.90
23122;DHT22;11730;51.248;22.534;2023-03-02T16:53:41;2.40;99.90
23122;DHT22;11730;51.248;22.534;2023-03-02T16:56:10;2.40;99.90
23122;DHT22;11730;51.248;22.534;2023-03-02T16:58:37;2.50;99.90
23122;DHT22;11730;51.248;22.534;2023-03-02T17:01:06;2.30;99.90
23122;DHT22;11730;51.248;22.534;2023-03-02T17:03:33;1.10;99.90
23122;DHT22;11730;51.248;22.534;2023-03-02T17:06:00;2.10;99.90
23122;DHT22;11730;51.248;22.534;2023-03-02T17:08:28;2.20;99.90
23122;DHT22;11730;51.248;22.534;2023-03-02T17:10:55;2.10;99.90
23122;DHT22;11730;51.248;22.534;2023-03-02T17:13:22;2.10;99.90
23122;DHT22;11730;51.248;22.534;2023-03-02T17:15:49;2.10;99.90
23122;DHT22;11730;51.248;22.534;2023-03-02T17:18:16;3.50;99.90
23122;DHT22;11730;51.248;22.534;2023-03-02T17:20:42;2.10;99.90
23122;DHT22;11730;51.248;22.534;2023-03-02T17:23:09;2.00;99.90
23122;DHT22;11730;51.248;22.534;2023-03-02T17:25:39;2.10;99.90
23122;DHT22;11730;51.248;22.534;2023-03-02T17:28:07;2.10;99.90
23122;DHT22;11730;51.248;22.534;2023-03-02T17:30:34;2.20;99.90
23122;DHT22;11730;51.248;22.534;2023-03-02T17:33:01;2.00;99.90
23122;DHT22;11730;51.248;22.534;2023-03-02T17:35:28;2.10;99.90
23122;DHT22;11730;51.248;22.534;2023-03-02T17:37:55;2.00;99.90
23122;DHT22;11730;51.248;22.534;2023-03-02T17:40:23;2.10;99.90
23122;DHT22;11730;51.248;22.534;2023-03-02T17:42:50;2.00;99.90
23122;DHT22;11730;51.248;22.534;2023-03-02T17:45:24;2.00;99.90
23122;DHT22;11730;51.248;22.534;2023-03-02T17:47:52;2.20;99.90
23122;DHT22;11730;51.248;22.534;2023-03-02T17:50:20;2.10;99.90
23122;DHT22;11730;51.248;22.534;2023-03-02T17:52:47;2.20;99.90
23122;DHT22;11730;51.248;22.534;2023-03-02T17:55:15;2.00;99.90
23122;DHT22;11730;51.248;22.534;2023-03-02T17:57:42;2.00;99.90
23122;DHT22;11730;51.248;22.534;2023-03-02T18:00:12;1.90;99.90
23122;DHT22;11730;51.248;22.534;2023-03-02T18:02:39;1.80;99.90
23122;DHT22;11730;51.248;22.534;2023-03-02T18:05:07;1.70;99.90
23122;DHT22;11730;51.248;22.534;2023-03-02T18:07:36;1.90;99.90
23122;DHT22;11730;51.248;22.534;2023-03-02T18:10:04;1.90;99.90
23122;DHT22;11730;51.248;22.534;2023-03-02T18:12:32;1.90;99.90
23122;DHT22;11730;51.248;22.534;2023-03-02T18:14:59;1.80;99.90
23122;DHT22;11730;51.248;22.534;2023-03-02T18:17:26;1.60;99.90
23122;DHT22;11730;51.248;22.534;2023-03-02T18:19:53;1.60;99.90
23122;DHT22;11730;51.248;22.534;2023-03-02T18:22:20;1.50;99.90
23122;DHT22;11730;51.248;22.534;2023-03-02T18:24:47;1.50;99.90
23122;DHT22;11730;51.248;22.534;2023-03-02T18:27:16;1.40;99.90
23122;DHT22;11730;51.248;22.534;2023-03-02T18:29:43;1.50;99.90
23122;DHT22;11730;51.248;22.534;2023-03-02T18:32:10;1.50;99.90
23122;DHT22;11730;51.248;22.534;2023-03-02T18:34:37;2.70;99.90
23122;DHT22;11730;51.248;22.534;2023-03-02T18:37:04;1.40;99.90
23122;DHT22;11730;51.248;22.534;2023-03-02T18:39:31;1.40;99.90
23122;DHT22;11730;51.248;22.534;2023-03-02T18:41:58;1.50;99.90
23122;DHT22;11730;51.248;22.534;2023-03-02T18:44:25;1.50;99.90
23122;DHT22;11730;51.248;22.534;2023-03-02T18:46:54;1.50;99.90
23122;DHT22;11730;51.248;22.534;2023-03-02T18:49:22;1.40;99.90
23122;DHT22;11730;51.248;22.534;2023-03-02T18:51:49;1.50;99.90
23122;DHT22;11730;51.248;22.534;2023-03-02T18:54:16;1.30;99.90
23122;DHT22;11730;51.248;22.534;2023-03-02T18:56:43;1.30;99.90
23122;DHT22;11730;51.248;22.534;2023-03-02T18:59:10;1.30;99.90
23122;DHT22;11730;51.248;22.534;2023-03-02T19:01:38;1.30;99.90
23122;DHT22;11730;51.248;22.534;2023-03-02T19:04:05;1.30;99.90
23122;DHT22;11730;51.248;22.534;2023-03-02T19:06:32;1.30;99.90
23122;DHT22;11730;51.248;22.534;2023-03-02T19:08:59;1.30;99.90
23122;DHT22;11730;51.248;22.534;2023-03-02T19:11:26;1.40;99.90
23122;DHT22;11730;51.248;22.534;2023-03-02T19:13:53;1.40;99.90
23122;DHT22;11730;51.248;22.534;2023-03-02T19:16:20;1.20;99.90
23122;DHT22;11730;51.248;22.534;2023-03-02T19:18:47;1.20;99.90
23122;DHT22;11730;51.248;22.534;2023-03-02T19:21:15;1.30;99.90
23122;DHT22;11730;51.248;22.534;2023-03-02T19:23:42;1.40;99.90
23122;DHT22;11730;51.248;22.534;2023-03-02T19:26:12;1.40;99.90
23122;DHT22;11730;51.248;22.534;2023-03-02T19:28:39;1.40;99.90
23122;DHT22;11730;51.248;22.534;2023-03-02T19:31:07;1.40;99.90
23122;DHT22;11730;51.248;22.534;2023-03-02T19:33:37;1.30;99.90
23122;DHT22;11730;51.248;22.534;2023-03-02T19:36:04;1.10;99.90
23122;DHT22;11730;51.248;22.534;2023-03-02T19:38:32;1.00;99.90
23122;DHT22;11730;51.248;22.534;2023-03-02T19:40:59;1.00;99.90
23122;DHT22;11730;51.248;22.534;2023-03-02T19:43:27;1.00;99.90
23122;DHT22;11730;51.248;22.534;2023-03-02T19:45:54;1.20;99.90
23122;DHT22;11730;51.248;22.534;2023-03-02T19:48:21;1.20;99.90
23122;DHT22;11730;51.248;22.534;2023-03-02T19:50:48;1.10;99.90
23122;DHT22;11730;51.248;22.534;2023-03-02T19:53:17;1.20;99.90
23122;DHT22;11730;51.248;22.534;2023-03-02T19:55:44;1.20;99.90
23122;DHT22;11730;51.248;22.534;2023-03-02T19:58:11;1.30;99.90
23122;DHT22;11730;51.248;22.534;2023-03-02T20:00:43;1.30;99.90
23122;DHT22;11730;51.248;22.534;2023-03-02T20:03:11;1.10;99.90
23122;DHT22;11730;51.248;22.534;2023-03-02T20:05:38;1.20;99.90
23122;DHT22;11730;51.248;22.534;2023-03-02T20:08:06;1.20;99.90
23122;DHT22;11730;51.248;22.534;2023-03-02T20:10:39;1.20;99.90
23122;DHT22;11730;51.248;22.534;2023-03-02T20:13:07;1.10;99.90
23122;DHT22;11730;51.248;22.534;2023-03-02T20:15:38;1.20;99.90
23122;DHT22;11730;51.248;22.534;2023-03-02T20:18:07;1.20;99.90
23122;DHT22;11730;51.248;22.534;2023-03-02T20:20:35;2.20;99.90
23122;DHT22;11730;51.248;22.534;2023-03-02T20:23:02;1.00;99.90
23122;DHT22;11730;51.248;22.534;2023-03-02T20:25:30;1.10;99.90
23122;DHT22;11730;51.248;22.534;2023-03-02T20:27:58;1.10;99.90
23122;DHT22;11730;51.248;22.534;2023-03-02T20:30:32;1.10;99.90
23122;DHT22;11730;51.248;22.534;2023-03-02T20:33:00;1.00;99.90
23122;DHT22;11730;51.248;22.534;2023-03-02T20:35:29;1.00;99.90
23122;DHT22;11730;51.248;22.534;2023-03-02T20:37:59;1.00;99.90
23122;DHT22;11730;51.248;22.534;2023-03-02T20:40:27;1.10;99.90
23122;DHT22;11730;51.248;22.534;2023-03-02T20:42:55;1.10;99.90
23122;DHT22;11730;51.248;22.534;2023-03-02T20:45:22;2.50;99.90
23122;DHT22;11730;51.248;22.534;2023-03-02T20:47:49;1.10;99.90
23122;DHT22;11730;51.248;22.534;2023-03-02T20:50:21;1.10;99.90